Time,TemperatureF,DewpointF,PressureIn,WindDirection,WindDirectionDegrees,WindSpeedMPH,WindSpeedGustMPH,Humidity,HourlyPrecipIn,Conditions,Clouds,dailyrainin,SoftwareType,DateUTC
2013-08-05 00:00:00,64.5,58.2,29.94,WNW,300,3.0,6.0,80,0.00,,---,0.00,VWS V14.01,2013-08-05 04:00:00,
2013-08-05 00:30:00,64.3,58.3,29.95,West,273,2.0,4.0,81,0.00,,---,0.00,VWS V14.01,2013-08-05 04:30:00,
2013-08-05 01:00:00,63.7,57.8,29.97,NNW,346,3.0,5.0,81,0.00,,---,0.00,VWS V15.00,2013-08-05 05:00:00,
2013-08-05 01:30:00,63.7,57.8,29.96,NW,325,0.0,5.0,81,0.00,,---,0.00,VWS V14.01,2013-08-05 05:30:00,
2013-08-05 02:00:00,63.7,57.8,29.97,NNW,346,3.0,5.0,81,0.00,,---,0.00,VWS V14.01,2013-08-05 06:00:00,
2013-08-05 02:30:00,63.4,57.8,29.97,North,355,0.0,6.0,82,0.00,,---,0.00,VWS V14.01,2013-08-05 06:30:00,
2013-08-05 03:00:00,62.7,57.5,29.98,North,350,2.0,5.0,83,0.00,,---,0.00,VWS V14.01,2013-08-05 07:00:00,
2013-08-05 03:30:00,62.1,57.2,29.98,WNW,292,1.0,3.0,84,0.00,,---,0.00,VWS V14.01,2013-08-05 07:30:00,
2013-08-05 04:00:00,62.0,56.8,29.98,North,5,3.0,5.0,83,0.00,,---,0.00,VWS V14.01,2013-08-05 08:00:00,
2013-08-05 04:30:00,61.8,56.6,29.98,North,355,0.0,5.0,83,0.00,,---,0.00,VWS V14.01,2013-08-05 08:30:00,
2013-08-05 05:00:00,60.8,56.3,29.98,NNW,344,0.0,4.0,85,0.00,,---,0.00,VWS V14.01,2013-08-05 09:00:00,
2013-08-05 05:30:00,59.6,55.7,29.98,North,355,0.0,4.0,87,0.00,,---,0.00,VWS V14.01,2013-08-05 09:30:00,
2013-08-05 06:00:00,59.1,55.6,30.00,North,349,0.0,4.0,88,0.00,,---,0.00,VWS V14.01,2013-08-05 10:00:00,
2013-08-05 06:30:00,58.8,54.9,30.01,NNW,345,0.0,5.0,87,0.00,,---,0.00,VWS V14.01,2013-08-05 10:30:00,
2013-08-05 07:00:00,58.5,54.3,30.01,North,360,1.0,4.0,86,0.00,,---,0.00,VWS V14.01,2013-08-05 11:00:00,
2013-08-05 07:30:00,58.8,54.3,30.01,North,355,0.0,5.0,85,0.00,,---,0.00,VWS V14.01,2013-08-05 11:30:00,
2013-08-05 08:00:00,59.0,55.1,30.02,North,350,0.0,3.0,87,0.00,,---,0.00,VWS V14.01,2013-08-05 12:00:00,
2013-08-05 08:30:00,63.2,56.2,30.03,North,360,2.0,7.0,78,0.00,,---,0.00,VWS V14.01,2013-08-05 12:30:00,
2013-08-05 09:00:00,67.0,57.3,30.03,NW,317,3.0,7.0,71,0.00,,---,0.00,VWS V14.01,2013-08-05 13:00:00,
2013-08-05 09:30:00,68.6,57.6,30.04,North,355,3.0,12.0,68,0.00,,---,0.00,VWS V14.01,2013-08-05 13:30:00,
2013-08-05 10:00:00,69.9,58.5,30.04,North,5,3.0,11.0,67,0.00,,---,0.00,VWS V14.01,2013-08-05 14:00:00,
2013-08-05 10:30:00,72.2,58.5,30.04,West,277,5.0,8.0,62,0.00,,---,0.00,VWS V14.01,2013-08-05 14:30:00,
2013-08-05 11:00:00,73.8,59.5,30.04,NW,304,1.0,7.0,61,0.00,,---,0.00,VWS V14.01,2013-08-05 15:00:00,
2013-08-05 11:30:00,75.2,57.9,30.05,NNE,18,1.0,10.0,55,0.00,,---,0.00,VWS V14.01,2013-08-05 15:30:00,
2013-08-05 12:00:00,76.2,57.8,30.04,WNW,292,2.0,9.0,53,0.00,,---,0.00,VWS V14.01,2013-08-05 16:00:00,
2013-08-05 12:30:00,77.3,57.8,30.04,WNW,284,0.0,9.0,51,0.00,,---,0.00,VWS V14.01,2013-08-05 16:30:00,
2013-08-05 13:00:00,78.0,56.7,30.04,NNE,16,0.0,11.0,48,0.00,,---,0.00,VWS V14.01,2013-08-05 17:00:00,
2013-08-05 13:30:00,78.5,56.6,30.03,NW,309,0.0,12.0,47,0.00,,---,0.00,VWS V14.01,2013-08-05 17:30:00,
2013-08-05 14:00:00,78.7,56.8,30.02,SW,226,3.0,11.0,47,0.00,,---,0.00,VWS V14.01,2013-08-05 18:00:00,
2013-08-05 14:30:00,78.9,56.4,30.01,NW,313,2.0,10.0,46,0.00,,---,0.00,VWS V14.01,2013-08-05 18:30:00,
2013-08-05 15:00:00,79.2,56.0,30.01,NNW,338,0.0,9.0,45,0.00,,---,0.00,VWS V14.01,2013-08-05 19:00:00,
2013-08-05 15:30:00,80.7,55.5,30.00,SW,231,0.0,11.0,42,0.00,,---,0.00,VWS V14.01,2013-08-05 19:30:00,
2013-08-05 16:00:00,81.4,54.8,29.99,NNE,26,2.0,11.0,40,0.00,,---,0.00,VWS V14.01,2013-08-05 20:00:00,
2013-08-05 16:30:00,81.3,52.6,29.98,WNW,296,1.0,11.0,37,0.00,,---,0.00,VWS V14.01,2013-08-05 20:30:00,
2013-08-05 17:00:00,80.0,52.8,29.98,NNW,328,3.0,10.0,39,0.00,,---,0.00,VWS V14.01,2013-08-05 21:00:00,
2013-08-05 17:30:00,78.6,53.6,29.98,West,267,0.0,12.0,42,0.00,,---,0.00,VWS V14.01,2013-08-05 21:30:00,
2013-08-05 18:00:00,77.8,54.8,29.99,WNW,298,0.0,11.0,45,0.00,,---,0.00,VWS V14.01,2013-08-05 22:00:00,
2013-08-05 18:30:00,76.6,54.3,29.99,SW,225,0.0,8.0,46,0.00,,---,0.00,VWS V14.01,2013-08-05 22:30:00,
2013-08-05 19:00:00,75.8,55.3,29.99,WNW,298,1.0,10.0,49,0.00,,---,0.00,VWS V14.01,2013-08-05 23:00:00,
2013-08-05 19:30:00,75.1,57.3,30.00,West,267,2.0,8.0,54,0.00,,---,0.00,VWS V14.01,2013-08-05 23:30:00,
2013-08-05 20:00:00,74.2,57.0,30.01,West,269,0.0,4.0,55,0.00,,---,0.00,VWS V14.01,2013-08-06 00:00:00,
2013-08-05 20:30:00,72.9,59.1,30.01,WNW,301,0.0,4.0,62,0.00,,---,0.00,VWS V14.01,2013-08-06 00:30:00,
2013-08-05 21:00:00,69.5,58.9,30.02,WNW,301,0.0,1.0,69,0.00,,---,0.00,VWS V14.01,2013-08-06 01:00:00,
2013-08-05 21:30:00,66.7,58.5,30.02,WNW,301,0.0,0.0,75,0.00,,---,0.00,VWS V14.01,2013-08-06 01:30:00,
2013-08-05 22:00:00,65.0,58.3,30.04,WNW,301,0.0,0.0,79,0.00,,---,0.00,VWS V14.01,2013-08-06 02:00:00,
2013-08-05 22:30:00,63.9,58.3,30.03,WNW,301,0.0,0.0,82,0.00,,---,0.00,VWS V14.01,2013-08-06 02:30:00,
2013-08-05 23:00:00,63.3,58.4,30.03,WNW,301,0.0,0.0,84,0.00,,---,0.00,VWS V14.01,2013-08-06 03:00:00,
2013-08-05 23:30:00,62.9,58.3,30.02,WNW,301,0.0,0.0,85,0.00,,---,0.00,VWS V14.01,2013-08-06 03:30:00,